aviador You're here:

OITT Decoded Metar

TABRIZ in IRAN
Report Time2017-08-21 13:30:00
UTC Time2017-08-21 13:42:26
Flight Rules vfr VFR
Wind250° at 08 kt
W.Decomp.*RWY 30: 4.6 kt HW 6.6 kt LCW
W.Rank250° ranks 14
Current wind is below 250° avg. (9.0)
Visibility9999 m
Phenomena:N/A
Clouds:Few TCU 035 Hf
Expected CloudBase > 12,400 ft AGL from Temp-Dew spread
CeilingNone
Temp35°C (ISA +29)
Dew Point04°C (14% RH)
Heat Index32.5°C
AAT30.7°C
QNH1013 hPa
Density Alt7,808 ft
Elevation4,465 ft
Report Wrong Elevation
Raw Report
OITT 211330Z 25008KT 9999 FEW035TCU 35/04 Q1013 A2994=

Extra information for OITT:More info

Metar Taf Metar & Taf Last 4 Metars F.Rules Stats Wind Profile Meteogram Temp Stats Airport Information Weather charts Add Link Nearby VenuesMetar ALERT Operation Metar Decoded Social comments